Excelsior Bay — V7BQ4 — position and weather

sailwx.info

Track history (hours):
 
Tides and Currents Weather Stations Pressure Air Temp Water Temp Dewpoint Dewpoint Depression Visibility Wind Speed Wind Dir Waves Ship Positions

Excelsior Bay

Last reported at 2017-Dec-11 03:19 UTC. Time now 2017-Dec-15 20:10 UTC.
Position N 33°58' E 138°33'.

Length 183 m; draft 8 m.

Type: Tanker. MMSI: 538005186.

Date/timePositionNaut miles runAvg speedWind from/ knotsBaromVisibWave heightAir tempDewpointWater temp
2017-Dec-11 03:19N 33°58' E 138°33'1 1.5
2017-Dec-11 02:54N 33°58' E 138°33'1 1.5
2017-Dec-11 02:31N 33°59' E 138°32'1 1.4
2017-Dec-11 02:00N 33°60' E 138°32'1 1.3
2017-Dec-11 01:17N 34°00' E 138°32'1 1.4
2017-Dec-11 00:55N 34°01' E 138°32'1 1.3
2017-Dec-11 00:22N 34°02' E 138°32'1 1.4
2017-Dec-11 00:00N 34°02' E 138°32'1 1.4
2017-Dec-10 23:27N 34°03' E 138°32'1 1.4
2017-Dec-10 22:54N 34°04' E 138°32'1 1.3
2017-Dec-10 22:30N 34°04' E 138°32'1 1.4
2017-Dec-10 21:56N 34°05' E 138°32'1 1.3
2017-Dec-10 21:29N 34°06' E 138°32'1 1.2
2017-Dec-10 20:51N 34°06' E 138°31'0 1.3
2017-Dec-10 20:30N 34°07' E 138°31'2 1.1
2017-Dec-10 19:05N 34°07' E 138°29'0 1.0
2017-Dec-10 18:47N 34°07' E 138°29'1 1.0
2017-Dec-10 17:23N 34°07' E 138°27'1 0.6
2017-Dec-10 16:29N 34°07' E 138°26'0 0.6
2017-Dec-10 15:46N 34°07' E 138°26'0 0.7
2017-Dec-10 15:18N 34°07' E 138°26'6 1.0
2017-Dec-10 09:45N 34°06' E 138°19'2 1.2
2017-Dec-10 08:18N 34°05' E 138°18'2 1.0
2017-Dec-10 06:38N 34°03' E 138°17'0 0.8
2017-Dec-10 06:30N 34°03' E 138°17'0 0.6
2017-Dec-10 05:52N 34°03' E 138°17'0 0.4
2017-Dec-10 05:25N 34°02' E 138°16'0 0.6
2017-Dec-10 04:49N 34°02' E 138°17'0 0.4
2017-Dec-10 04:29N 34°02' E 138°17'1 0.4
2017-Dec-10 02:49N 34°02' E 138°17'0 0.4
2017-Dec-10 02:29N 34°01' E 138°17'0 0.5
2017-Dec-10 01:44N 34°01' E 138°18'1 0.5
2017-Dec-10 00:32N 34°02' E 138°18'1 0.5
2017-Dec-09 22:21N 34°02' E 138°19'1 0.5
2017-Dec-09 21:15N 34°03' E 138°19'0 0.5
2017-Dec-09 20:57N 34°03' E 138°19'1 0.5
2017-Dec-09 19:52N 34°04' E 138°19'0 0.7
2017-Dec-09 19:12N 34°04' E 138°19'0 0.7
2017-Dec-09 18:59N 34°04' E 138°19'0 0.6
2017-Dec-09 18:23N 34°05' E 138°19'0 0.5
2017-Dec-09 17:58N 34°05' E 138°19'0 0.7
2017-Dec-09 17:26N 34°05' E 138°19'0 0.7
2017-Dec-09 16:58N 34°05' E 138°19'0 0.6
2017-Dec-09 16:30N 34°06' E 138°19'0 0.7
2017-Dec-09 16:01N 34°06' E 138°19'0 0.8
2017-Dec-09 15:30N 34°06' E 138°19'1 0.9
2017-Dec-09 14:56N 34°07' E 138°19'1 0.9
2017-Dec-09 14:21N 34°07' E 138°19'0 0.9
2017-Dec-09 14:00N 34°08' E 138°19'1 1.1
2017-Dec-09 13:28N 34°08' E 138°19'1 1.2
2017-Dec-09 12:52N 34°09' E 138°18'0 1.1
2017-Dec-09 12:30N 34°09' E 138°18'1 1.3
2017-Dec-09 12:00N 34°10' E 138°18'5 9.7
2017-Dec-09 11:27N 34°13' E 138°24'511.8
2017-Dec-09 11:00N 34°16' E 138°29'611.5
2017-Dec-09 10:30N 34°19' E 138°35'611.4
2017-Dec-09 10:00N 34°22' E 138°41'610.6
2017-Dec-09 09:27N 34°26' E 138°46'510.3
2017-Dec-09 09:00N 34°28' E 138°51'5 9.8
2017-Dec-09 08:31N 34°31' E 138°56'5 9.6
2017-Dec-09 08:00N 34°34' E 139°01'5 9.5
2017-Dec-09 07:30N 34°37' E 139°05'5 9.6
2017-Dec-09 07:01N 34°40' E 139°09'510.3
2017-Dec-09 06:30N 34°44' E 139°13'510.4
2017-Dec-09 06:01N 34°48' E 139°17'510.3
2017-Dec-09 05:31N 34°52' E 139°22'611.9
2017-Dec-09 05:00N 34°55' E 139°28'611.6
2017-Dec-09 04:30N 34°59' E 139°33'612.1
2017-Dec-09 04:00N 35°03' E 139°39'612.5
2017-Dec-09 03:30N 35°07' E 139°44'612.0
2017-Dec-09 03:01N 35°13' E 139°46'611.2
2017-Dec-09 02:31N 35°18' E 139°44'612.2
2017-Dec-09 02:00N 35°24' E 139°43'713.4
2017-Dec-09 01:30N 35°30' E 139°48'2 4.0
2017-Dec-09 01:00N 35°31' E 139°46'0 0.1
2017-Dec-09 00:16N 35°31' E 139°46'0 0.0
2017-Dec-08 23:55N 35°31' E 139°46'0 0.0
2017-Dec-08 23:16N 35°31' E 139°46'0 0.0
2017-Dec-08 22:58N 35°31' E 139°46'0 0.0
2017-Dec-08 22:22N 35°31' E 139°46'0 0.0
2017-Dec-08 21:01N 35°31' E 139°46'0 0.0
2017-Dec-08 20:46N 35°31' E 139°46'0 0.0
2017-Dec-08 20:28N 35°31' E 139°46'0 0.0
2017-Dec-08 19:58N 35°31' E 139°46'0 0.0
2017-Dec-08 19:28N 35°31' E 139°46'0 0.0
2017-Dec-08 18:55N 35°31' E 139°46'0 0.0
2017-Dec-08 18:13N 35°31' E 139°46'0 0.0
2017-Dec-08 17:40N 35°31' E 139°46'0 0.0
2017-Dec-08 17:28N 35°31' E 139°46'0 0.0
2017-Dec-08 16:43N 35°31' E 139°46'0 0.0
2017-Dec-08 16:22N 35°31' E 139°46'0 0.0
2017-Dec-08 15:58N 35°31' E 139°46'0 0.0
2017-Dec-08 15:28N 35°31' E 139°46'0 0.0
2017-Dec-08 14:52N 35°31' E 139°46'0 0.0
2017-Dec-08 14:28N 35°31' E 139°46'0 0.0
2017-Dec-08 13:58N 35°31' E 139°46'0 0.0
2017-Dec-08 13:28N 35°31' E 139°46'0 0.0
2017-Dec-08 12:55N 35°31' E 139°46'0 0.0
2017-Dec-08 12:28N 35°31' E 139°46'0 0.0
2017-Dec-08 11:58N 35°31' E 139°46'0 0.0
2017-Dec-08 11:16N 35°31' E 139°46'0 0.0
2017-Dec-08 10:55N 35°31' E 139°46'0 0.0
2017-Dec-08 10:28N 35°31' E 139°46'0 0.0
2017-Dec-08 09:46N 35°31' E 139°46'0 0.0
2017-Dec-08 09:25N 35°31' E 139°46'0 0.0
2017-Dec-08 08:52N 35°31' E 139°46'0 0.0
2017-Dec-08 08:19N 35°31' E 139°46'0 0.0
2017-Dec-08 07:58N 35°31' E 139°46'0 0.0
2017-Dec-08 07:28N 35°31' E 139°46'0 0.0
2017-Dec-08 06:58N 35°31' E 139°46'0 0.0
2017-Dec-08 06:28N 35°31' E 139°46'0 0.0
2017-Dec-08 05:55N 35°31' E 139°46'0 0.0
2017-Dec-08 05:28N 35°31' E 139°46'0 0.0
2017-Dec-08 05:00N 35°31' E 139°46'2 3.2
2017-Dec-08 04:30N 35°30' E 139°48'2 4.2
2017-Dec-08 03:59N 35°28' E 139°47'0 0.1
2017-Dec-08 03:28N 35°28' E 139°47'0 0.1
2017-Dec-08 02:55N 35°28' E 139°47'0 0.0
2017-Dec-08 02:25N 35°28' E 139°47'0 0.1
2017-Dec-08 01:58N 35°28' E 139°47'0 0.1
2017-Dec-08 01:28N 35°28' E 139°47'0 0.1
2017-Dec-08 00:58N 35°28' E 139°47'0 0.1
2017-Dec-08 00:29N 35°28' E 139°47'0 0.1
2017-Dec-07 23:58N 35°28' E 139°47'0 0.0
2017-Dec-07 23:28N 35°28' E 139°47'0 0.0
2017-Dec-07 22:59N 35°28' E 139°47'0 0.0
2017-Dec-07 22:25N 35°28' E 139°47'0 0.0
2017-Dec-07 21:58N 35°28' E 139°47'0 0.0
2017-Dec-07 21:28N 35°28' E 139°47'0 0.0
2017-Dec-07 20:55N 35°28' E 139°47'0 0.0
2017-Dec-07 20:25N 35°28' E 139°47'0 0.0
2017-Dec-07 19:55N 35°28' E 139°47'0 0.2
2017-Dec-07 19:28N 35°28' E 139°47'0 0.2
2017-Dec-07 18:58N 35°28' E 139°47'0 0.1
2017-Dec-07 18:28N 35°28' E 139°47'0 0.0
2017-Dec-07 17:58N 35°28' E 139°47'0 0.1
2017-Dec-07 17:29N 35°28' E 139°47'0 0.0
2017-Dec-07 16:58N 35°28' E 139°47'0 0.1
2017-Dec-07 16:28N 35°28' E 139°47'0 0.0
2017-Dec-07 15:59N 35°28' E 139°47'0 0.0
2017-Dec-07 15:28N 35°28' E 139°47'0 0.0
2017-Dec-07 14:58N 35°28' E 139°47'0 0.0
2017-Dec-07 14:29N 35°28' E 139°47'0 0.1
2017-Dec-07 13:58N 35°28' E 139°47'0 0.0
2017-Dec-07 13:29N 35°28' E 139°47'0 0.0
2017-Dec-07 12:58N 35°28' E 139°47'0 0.0
2017-Dec-07 12:28N 35°28' E 139°47'0 0.0
2017-Dec-07 11:58N 35°28' E 139°47'0 0.1
2017-Dec-07 11:28N 35°28' E 139°47'0 0.2
2017-Dec-07 10:58N 35°28' E 139°47'0 0.1
2017-Dec-07 10:28N 35°28' E 139°47'0 0.0
2017-Dec-07 09:58N 35°28' E 139°47'0 0.0
2017-Dec-07 09:28N 35°28' E 139°47'0 0.0
2017-Dec-07 08:58N 35°28' E 139°47'0 0.0
2017-Dec-07 08:28N 35°28' E 139°47'0 0.0
2017-Dec-07 07:59N 35°28' E 139°47'0 0.0
2017-Dec-07 07:28N 35°28' E 139°47'0 0.0
2017-Dec-07 06:58N 35°28' E 139°47'0 0.0
2017-Dec-07 06:28N 35°28' E 139°47'0 0.1
2017-Dec-07 05:58N 35°28' E 139°47'0 0.1
2017-Dec-07 05:29N 35°28' E 139°47'0 0.0
2017-Dec-07 04:58N 35°28' E 139°47'0 0.0
2017-Dec-07 04:28N 35°28' E 139°47'0 0.0
2017-Dec-07 03:58N 35°28' E 139°47'0 0.0
2017-Dec-07 03:28N 35°28' E 139°47'0 0.0
2017-Dec-07 02:58N 35°28' E 139°47'0 0.0
2017-Dec-07 02:28N 35°28' E 139°47'0 0.0
2017-Dec-07 01:58N 35°28' E 139°47'0 0.0
2017-Dec-07 01:28N 35°28' E 139°47'0 0.0
2017-Dec-07 00:59N 35°28' E 139°47'0 0.0
2017-Dec-07 00:29N 35°28' E 139°47'0 0.0
2017-Dec-06 23:58N 35°28' E 139°47'0 0.1
2017-Dec-06 23:28N 35°28' E 139°47'0 0.1
2017-Dec-06 22:55N 35°28' E 139°47'0 0.1
2017-Dec-06 22:28N 35°28' E 139°47'0 0.0
2017-Dec-06 21:58N 35°28' E 139°47'0 0.0
2017-Dec-06 21:28N 35°28' E 139°47'0 0.0
2017-Dec-06 20:58N 35°28' E 139°47'  
2017-Dec-04 10:19N 35°28' E 139°47'0 0.0
2017-Dec-04 09:55N 35°28' E 139°47'0 0.0
2017-Dec-04 09:25N 35°28' E 139°47'0 0.0
2017-Dec-04 08:55N 35°28' E 139°47'0 0.1
2017-Dec-04 08:25N 35°28' E 139°47'0 0.1
2017-Dec-04 07:55N 35°28' E 139°47'0 0.1
2017-Dec-04 07:25N 35°28' E 139°47'0 0.1
2017-Dec-04 06:55N 35°28' E 139°47'0 0.1
2017-Dec-04 06:25N 35°28' E 139°47'0 0.0
2017-Dec-04 05:55N 35°28' E 139°47'0 0.0
2017-Dec-04 05:25N 35°28' E 139°47'0 0.0
2017-Dec-04 04:55N 35°28' E 139°47'0 0.0
2017-Dec-04 04:25N 35°28' E 139°47'0 0.0
2017-Dec-04 03:55N 35°28' E 139°47'0 0.0
2017-Dec-04 03:25N 35°28' E 139°47'0 0.0
2017-Dec-04 02:56N 35°28' E 139°47'0 0.1
2017-Dec-04 02:25N 35°28' E 139°47'0 0.1
2017-Dec-04 01:55N 35°28' E 139°47'0 0.1
2017-Dec-04 01:25N 35°28' E 139°47'0 0.0
2017-Dec-04 00:56N 35°28' E 139°47'0 0.1
2017-Dec-04 00:28N 35°28' E 139°47'0 0.1
2017-Dec-03 23:58N 35°28' E 139°47'0 0.1
2017-Dec-03 23:30N 35°28' E 139°47'2 4.7
2017-Dec-03 23:00N 35°30' E 139°47'1 1.8
2017-Dec-03 22:30N 35°31' E 139°46'0 0.0
2017-Dec-03 21:57N 35°31' E 139°46'0 0.0
2017-Dec-03 21:24N 35°31' E 139°46'0 0.0
2017-Dec-03 20:51N 35°31' E 139°46'0 0.0
2017-Dec-03 20:24N 35°31' E 139°46'0 0.0
2017-Dec-03 20:00N 35°31' E 139°46'0 0.0
2017-Dec-03 19:30N 35°31' E 139°46'0 0.0
2017-Dec-03 18:45N 35°31' E 139°46'0 0.0
2017-Dec-03 18:27N 35°31' E 139°46'0 0.0
2017-Dec-03 17:24N 35°31' E 139°46'0 0.0
2017-Dec-03 16:57N 35°31' E 139°46'0 0.0
2017-Dec-03 16:30N 35°31' E 139°46'0 0.0
2017-Dec-03 15:45N 35°31' E 139°46'0 0.0
2017-Dec-03 15:27N 35°31' E 139°46'0 0.0
2017-Dec-03 14:57N 35°31' E 139°46'0 0.0
2017-Dec-03 14:30N 35°31' E 139°46'0 0.0
2017-Dec-03 14:00N 35°31' E 139°46'0 0.0
2017-Dec-03 13:03N 35°31' E 139°46'0 0.0
2017-Dec-03 12:54N 35°31' E 139°46'0 0.0
2017-Dec-03 12:21N 35°31' E 139°46'0 0.0
2017-Dec-03 11:57N 35°31' E 139°46'0 0.0
2017-Dec-03 11:30N 35°31' E 139°46'0 0.0
2017-Dec-03 11:00N 35°31' E 139°46'0 0.0
2017-Dec-03 10:30N 35°31' E 139°46'0 0.0
2017-Dec-03 09:42N 35°31' E 139°46'0 0.0
2017-Dec-03 09:18N 35°31' E 139°46'0 0.0
2017-Dec-03 08:57N 35°31' E 139°46'0 0.0
2017-Dec-03 08:27N 35°31' E 139°46'0 0.0
2017-Dec-03 08:00N 35°31' E 139°46'0 0.0
2017-Dec-03 07:27N 35°31' E 139°46'0 0.0
2017-Dec-03 06:33N 35°31' E 139°46'0 0.0
2017-Dec-03 06:18N 35°31' E 139°46'0 0.0
2017-Dec-03 05:57N 35°31' E 139°46'0 0.0
2017-Dec-03 05:09N 35°31' E 139°46'0 0.0
2017-Dec-03 04:45N 35°31' E 139°46'0 0.0
2017-Dec-03 04:15N 35°31' E 139°46'0 0.0
2017-Dec-03 03:54N 35°31' E 139°46'0 0.0
2017-Dec-03 03:30N 35°31' E 139°46'0 0.0
2017-Dec-03 02:51N 35°31' E 139°46'0 0.0
2017-Dec-03 02:27N 35°31' E 139°46'0 0.1
2017-Dec-03 02:00N 35°31' E 139°46'2 4.1
2017-Dec-03 01:30N 35°30' E 139°48'2 3.4
2017-Dec-03 00:58N 35°28' E 139°47'0 0.0
2017-Dec-03 00:28N 35°28' E 139°47'0 0.0
2017-Dec-02 23:58N 35°28' E 139°47'0 0.1
2017-Dec-02 23:28N 35°28' E 139°47'0 0.0
2017-Dec-02 22:58N 35°28' E 139°47'0 0.0
2017-Dec-02 22:28N 35°28' E 139°47'0 0.0
2017-Dec-02 21:58N 35°28' E 139°47'0 0.0
2017-Dec-02 21:28N 35°28' E 139°47'0 0.0
2017-Dec-02 20:58N 35°28' E 139°47'0 0.1
2017-Dec-02 20:28N 35°28' E 139°47'0 0.1
2017-Dec-02 19:58N 35°28' E 139°47'0 0.1
2017-Dec-02 19:28N 35°28' E 139°47'0 0.0
2017-Dec-02 18:58N 35°28' E 139°47'0 0.1
2017-Dec-02 18:28N 35°28' E 139°47'0 0.0
2017-Dec-02 17:55N 35°28' E 139°47'0 0.0
2017-Dec-02 17:25N 35°28' E 139°47'0 0.0
2017-Dec-02 16:58N 35°28' E 139°47'0 0.0
2017-Dec-02 16:28N 35°28' E 139°47'0 0.1
2017-Dec-02 15:58N 35°28' E 139°47'0 0.0
2017-Dec-02 15:28N 35°28' E 139°47'0 0.0
2017-Dec-02 14:58N 35°28' E 139°47'0 0.1
2017-Dec-02 14:28N 35°28' E 139°47'0 0.1
2017-Dec-02 13:58N 35°28' E 139°47'0 0.0
2017-Dec-02 13:28N 35°28' E 139°47'0 0.1
2017-Dec-02 12:58N 35°28' E 139°47'0 0.1
2017-Dec-02 12:28N 35°28' E 139°47'0 0.0
2017-Dec-02 11:58N 35°28' E 139°47'0 0.0
2017-Dec-02 11:28N 35°28' E 139°47'0 0.0
2017-Dec-02 10:58N 35°28' E 139°47'0 0.1
2017-Dec-02 10:28N 35°28' E 139°47'0 0.0
2017-Dec-02 09:58N 35°28' E 139°47'0 0.0
2017-Dec-02 09:28N 35°28' E 139°47'0 0.0
2017-Dec-02 08:58N 35°28' E 139°47'0 0.0
2017-Dec-02 08:28N 35°28' E 139°47'0 0.0
2017-Dec-02 07:58N 35°28' E 139°47'0 0.2
2017-Dec-02 07:28N 35°28' E 139°47'0 0.1
2017-Dec-02 06:58N 35°28' E 139°47'0 0.1
2017-Dec-02 06:28N 35°28' E 139°47'0 0.0
2017-Dec-02 05:58N 35°28' E 139°47'0 0.0
2017-Dec-02 05:28N 35°28' E 139°47'0 0.0
2017-Dec-02 04:58N 35°28' E 139°47'0 0.0
2017-Dec-02 04:28N 35°28' E 139°47'0 0.1
2017-Dec-02 03:58N 35°28' E 139°47'0 0.1
2017-Dec-02 03:28N 35°28' E 139°47'0 0.2
2017-Dec-02 02:58N 35°28' E 139°47'0 0.1
2017-Dec-02 02:28N 35°28' E 139°47'0 0.0
2017-Dec-02 01:58N 35°28' E 139°47'0 0.1
2017-Dec-02 01:28N 35°28' E 139°47'0 0.0
2017-Dec-02 00:58N 35°28' E 139°47'0 0.0
2017-Dec-02 00:28N 35°28' E 139°47'0 0.0
2017-Dec-01 23:58N 35°28' E 139°47'0 0.0
2017-Dec-01 23:28N 35°28' E 139°47'0 0.0
2017-Dec-01 22:58N 35°28' E 139°47'0 0.0
2017-Dec-01 22:28N 35°28' E 139°47'0 0.0
2017-Dec-01 21:58N 35°28' E 139°47'0 0.0
2017-Dec-01 21:28N 35°28' E 139°47'0 0.0
2017-Dec-01 20:58N 35°28' E 139°47'0 0.0
2017-Dec-01 20:28N 35°28' E 139°47'0 0.0
2017-Dec-01 19:58N 35°28' E 139°47'0 0.0
2017-Dec-01 19:28N 35°28' E 139°47'0 0.0
2017-Dec-01 18:58N 35°28' E 139°47'0 0.0
2017-Dec-01 18:28N 35°28' E 139°47'0 0.0
2017-Dec-01 17:58N 35°28' E 139°47'0 0.0
2017-Dec-01 17:28N 35°28' E 139°47'0 0.1
2017-Dec-01 16:58N 35°28' E 139°47'0 0.1
2017-Dec-01 16:28N 35°28' E 139°47'0 0.0
2017-Dec-01 15:58N 35°28' E 139°47'0 0.0
2017-Dec-01 15:28N 35°28' E 139°47'0 0.0
2017-Dec-01 14:58N 35°28' E 139°47'0 0.0
2017-Dec-01 14:28N 35°28' E 139°47'0 0.0
2017-Dec-01 13:58N 35°28' E 139°47'0 0.1
2017-Dec-01 13:28N 35°28' E 139°47'0 0.1
2017-Dec-01 12:58N 35°28' E 139°47'0 0.0
2017-Dec-01 12:28N 35°28' E 139°47'0 0.1
2017-Dec-01 11:58N 35°28' E 139°47'0 0.0
2017-Dec-01 11:28N 35°28' E 139°47'0 0.0
2017-Dec-01 10:58N 35°28' E 139°47'0 0.0
2017-Dec-01 10:28N 35°28' E 139°47'0 0.0
2017-Dec-01 09:58N 35°28' E 139°47'0 0.0
2017-Dec-01 09:25N 35°28' E 139°47'0 0.0
2017-Dec-01 08:58N 35°28' E 139°47'0 0.0
2017-Dec-01 08:28N 35°28' E 139°47'0 0.0
2017-Dec-01 07:58N 35°28' E 139°47'0 0.0
2017-Dec-01 07:28N 35°28' E 139°47'0 0.1
2017-Dec-01 06:58N 35°28' E 139°47'0 0.0
2017-Dec-01 06:28N 35°28' E 139°47'0 0.0
2017-Dec-01 05:58N 35°28' E 139°47'0 0.0
2017-Dec-01 05:28N 35°28' E 139°47'0 0.1
2017-Dec-01 04:58N 35°28' E 139°47'0 0.1
2017-Dec-01 04:28N 35°28' E 139°47'0 0.1
2017-Dec-01 03:58N 35°28' E 139°47'0 0.0
2017-Dec-01 03:28N 35°28' E 139°47'  
Track history (hours):
 
Tides and Currents Weather Stations Pressure Air Temp Water Temp Dewpoint Dewpoint Depression Visibility Wind Speed Wind Dir Waves Ship Positions

Excelsior Bay

Last reported at 2017-Dec-11 03:19 UTC. Time now 2017-Dec-15 20:10 UTC.
Position N 33°58' E 138°33'.

Length 183 m; draft 8 m.

Type: Tanker. MMSI: 538005186.

Date/timePositionNaut miles runAvg speedWind from/ knotsBaromVisibWave heightAir tempDewpointWater temp
2017-Dec-11 03:19N 33°58' E 138°33'1 1.5
2017-Dec-11 02:54N 33°58' E 138°33'1 1.5
2017-Dec-11 02:31N 33°59' E 138°32'1 1.4
2017-Dec-11 02:00N 33°60' E 138°32'1 1.3
2017-Dec-11 01:17N 34°00' E 138°32'1 1.4
2017-Dec-11 00:55N 34°01' E 138°32'1 1.3
2017-Dec-11 00:22N 34°02' E 138°32'1 1.4
2017-Dec-11 00:00N 34°02' E 138°32'1 1.4
2017-Dec-10 23:27N 34°03' E 138°32'1 1.4
2017-Dec-10 22:54N 34°04' E 138°32'1 1.3
2017-Dec-10 22:30N 34°04' E 138°32'1 1.4
2017-Dec-10 21:56N 34°05' E 138°32'1 1.3
2017-Dec-10 21:29N 34°06' E 138°32'1 1.2
2017-Dec-10 20:51N 34°06' E 138°31'0 1.3
2017-Dec-10 20:30N 34°07' E 138°31'2 1.1
2017-Dec-10 19:05N 34°07' E 138°29'0 1.0
2017-Dec-10 18:47N 34°07' E 138°29'1 1.0
2017-Dec-10 17:23N 34°07' E 138°27'1 0.6
2017-Dec-10 16:29N 34°07' E 138°26'0 0.6
2017-Dec-10 15:46N 34°07' E 138°26'0 0.7
2017-Dec-10 15:18N 34°07' E 138°26'6 1.0
2017-Dec-10 09:45N 34°06' E 138°19'2 1.2
2017-Dec-10 08:18N 34°05' E 138°18'2 1.0
2017-Dec-10 06:38N 34°03' E 138°17'0 0.8
2017-Dec-10 06:30N 34°03' E 138°17'0 0.6
2017-Dec-10 05:52N 34°03' E 138°17'0 0.4
2017-Dec-10 05:25N 34°02' E 138°16'0 0.6
2017-Dec-10 04:49N 34°02' E 138°17'0 0.4
2017-Dec-10 04:29N 34°02' E 138°17'1 0.4
2017-Dec-10 02:49N 34°02' E 138°17'0 0.4
2017-Dec-10 02:29N 34°01' E 138°17'0 0.5
2017-Dec-10 01:44N 34°01' E 138°18'1 0.5
2017-Dec-10 00:32N 34°02' E 138°18'1 0.5
2017-Dec-09 22:21N 34°02' E 138°19'1 0.5
2017-Dec-09 21:15N 34°03' E 138°19'0 0.5
2017-Dec-09 20:57N 34°03' E 138°19'1 0.5
2017-Dec-09 19:52N 34°04' E 138°19'0 0.7
2017-Dec-09 19:12N 34°04' E 138°19'0 0.7
2017-Dec-09 18:59N 34°04' E 138°19'0 0.6
2017-Dec-09 18:23N 34°05' E 138°19'0 0.5
2017-Dec-09 17:58N 34°05' E 138°19'0 0.7
2017-Dec-09 17:26N 34°05' E 138°19'0 0.7
2017-Dec-09 16:58N 34°05' E 138°19'0 0.6
2017-Dec-09 16:30N 34°06' E 138°19'0 0.7
2017-Dec-09 16:01N 34°06' E 138°19'0 0.8
2017-Dec-09 15:30N 34°06' E 138°19'1 0.9
2017-Dec-09 14:56N 34°07' E 138°19'1 0.9
2017-Dec-09 14:21N 34°07' E 138°19'0 0.9
2017-Dec-09 14:00N 34°08' E 138°19'1 1.1
2017-Dec-09 13:28N 34°08' E 138°19'1 1.2
2017-Dec-09 12:52N 34°09' E 138°18'0 1.1
2017-Dec-09 12:30N 34°09' E 138°18'1 1.3
2017-Dec-09 12:00N 34°10' E 138°18'5 9.7
2017-Dec-09 11:27N 34°13' E 138°24'511.8
2017-Dec-09 11:00N 34°16' E 138°29'611.5
2017-Dec-09 10:30N 34°19' E 138°35'611.4
2017-Dec-09 10:00N 34°22' E 138°41'610.6
2017-Dec-09 09:27N 34°26' E 138°46'510.3
2017-Dec-09 09:00N 34°28' E 138°51'5 9.8
2017-Dec-09 08:31N 34°31' E 138°56'5 9.6
2017-Dec-09 08:00N 34°34' E 139°01'5 9.5
2017-Dec-09 07:30N 34°37' E 139°05'5 9.6
2017-Dec-09 07:01N 34°40' E 139°09'510.3
2017-Dec-09 06:30N 34°44' E 139°13'510.4
2017-Dec-09 06:01N 34°48' E 139°17'510.3
2017-Dec-09 05:31N 34°52' E 139°22'611.9
2017-Dec-09 05:00N 34°55' E 139°28'611.6
2017-Dec-09 04:30N 34°59' E 139°33'612.1
2017-Dec-09 04:00N 35°03' E 139°39'612.5
2017-Dec-09 03:30N 35°07' E 139°44'612.0
2017-Dec-09 03:01N 35°13' E 139°46'611.2
2017-Dec-09 02:31N 35°18' E 139°44'612.2
2017-Dec-09 02:00N 35°24' E 139°43'713.4
2017-Dec-09 01:30N 35°30' E 139°48'2 4.0
2017-Dec-09 01:00N 35°31' E 139°46'0 0.1
2017-Dec-09 00:16N 35°31' E 139°46'0 0.0
2017-Dec-08 23:55N 35°31' E 139°46'0 0.0
2017-Dec-08 23:16N 35°31' E 139°46'0 0.0
2017-Dec-08 22:58N 35°31' E 139°46'0 0.0
2017-Dec-08 22:22N 35°31' E 139°46'0 0.0
2017-Dec-08 21:01N 35°31' E 139°46'0 0.0
2017-Dec-08 20:46N 35°31' E 139°46'0 0.0
2017-Dec-08 20:28N 35°31' E 139°46'0 0.0
2017-Dec-08 19:58N 35°31' E 139°46'0 0.0
2017-Dec-08 19:28N 35°31' E 139°46'0 0.0
2017-Dec-08 18:55N 35°31' E 139°46'0 0.0
2017-Dec-08 18:13N 35°31' E 139°46'0 0.0
2017-Dec-08 17:40N 35°31' E 139°46'0 0.0
2017-Dec-08 17:28N 35°31' E 139°46'0 0.0
2017-Dec-08 16:43N 35°31' E 139°46'0 0.0
2017-Dec-08 16:22N 35°31' E 139°46'0 0.0
2017-Dec-08 15:58N 35°31' E 139°46'0 0.0
2017-Dec-08 15:28N 35°31' E 139°46'0 0.0
2017-Dec-08 14:52N 35°31' E 139°46'0 0.0
2017-Dec-08 14:28N 35°31' E 139°46'0 0.0
2017-Dec-08 13:58N 35°31' E 139°46'0 0.0
2017-Dec-08 13:28N 35°31' E 139°46'0 0.0
2017-Dec-08 12:55N 35°31' E 139°46'0 0.0
2017-Dec-08 12:28N 35°31' E 139°46'0 0.0
2017-Dec-08 11:58N 35°31' E 139°46'0 0.0
2017-Dec-08 11:16N 35°31' E 139°46'0 0.0
2017-Dec-08 10:55N 35°31' E 139°46'0 0.0
2017-Dec-08 10:28N 35°31' E 139°46'0 0.0
2017-Dec-08 09:46N 35°31' E 139°46'0 0.0
2017-Dec-08 09:25N 35°31' E 139°46'0 0.0
2017-Dec-08 08:52N 35°31' E 139°46'0 0.0
2017-Dec-08 08:19N 35°31' E 139°46'0 0.0
2017-Dec-08 07:58N 35°31' E 139°46'0 0.0
2017-Dec-08 07:28N 35°31' E 139°46'0 0.0
2017-Dec-08 06:58N 35°31' E 139°46'0 0.0
2017-Dec-08 06:28N 35°31' E 139°46'0 0.0
2017-Dec-08 05:55N 35°31' E 139°46'0 0.0
2017-Dec-08 05:28N 35°31' E 139°46'0 0.0
2017-Dec-08 05:00N 35°31' E 139°46'2 3.2
2017-Dec-08 04:30N 35°30' E 139°48'2 4.2
2017-Dec-08 03:59N 35°28' E 139°47'0 0.1
2017-Dec-08 03:28N 35°28' E 139°47'0 0.1
2017-Dec-08 02:55N 35°28' E 139°47'0 0.0
2017-Dec-08 02:25N 35°28' E 139°47'0 0.1
2017-Dec-08 01:58N 35°28' E 139°47'0 0.1
2017-Dec-08 01:28N 35°28' E 139°47'0 0.1
2017-Dec-08 00:58N 35°28' E 139°47'0 0.1
2017-Dec-08 00:29N 35°28' E 139°47'0 0.1
2017-Dec-07 23:58N 35°28' E 139°47'0 0.0
2017-Dec-07 23:28N 35°28' E 139°47'0 0.0
2017-Dec-07 22:59N 35°28' E 139°47'0 0.0
2017-Dec-07 22:25N 35°28' E 139°47'0 0.0
2017-Dec-07 21:58N 35°28' E 139°47'0 0.0
2017-Dec-07 21:28N 35°28' E 139°47'0 0.0
2017-Dec-07 20:55N 35°28' E 139°47'0 0.0
2017-Dec-07 20:25N 35°28' E 139°47'0 0.0
2017-Dec-07 19:55N 35°28' E 139°47'0 0.2
2017-Dec-07 19:28N 35°28' E 139°47'0 0.2
2017-Dec-07 18:58N 35°28' E 139°47'0 0.1
2017-Dec-07 18:28N 35°28' E 139°47'0 0.0
2017-Dec-07 17:58N 35°28' E 139°47'0 0.1
2017-Dec-07 17:29N 35°28' E 139°47'0 0.0
2017-Dec-07 16:58N 35°28' E 139°47'0 0.1
2017-Dec-07 16:28N 35°28' E 139°47'0 0.0
2017-Dec-07 15:59N 35°28' E 139°47'0 0.0
2017-Dec-07 15:28N 35°28' E 139°47'0 0.0
2017-Dec-07 14:58N 35°28' E 139°47'0 0.0
2017-Dec-07 14:29N 35°28' E 139°47'0 0.1
2017-Dec-07 13:58N 35°28' E 139°47'0 0.0
2017-Dec-07 13:29N 35°28' E 139°47'0 0.0
2017-Dec-07 12:58N 35°28' E 139°47'0 0.0
2017-Dec-07 12:28N 35°28' E 139°47'0 0.0
2017-Dec-07 11:58N 35°28' E 139°47'0 0.1
2017-Dec-07 11:28N 35°28' E 139°47'0 0.2
2017-Dec-07 10:58N 35°28' E 139°47'0 0.1
2017-Dec-07 10:28N 35°28' E 139°47'0 0.0
2017-Dec-07 09:58N 35°28' E 139°47'0 0.0
2017-Dec-07 09:28N 35°28' E 139°47'0 0.0
2017-Dec-07 08:58N 35°28' E 139°47'0 0.0
2017-Dec-07 08:28N 35°28' E 139°47'0 0.0
2017-Dec-07 07:59N 35°28' E 139°47'0 0.0
2017-Dec-07 07:28N 35°28' E 139°47'0 0.0
2017-Dec-07 06:58N 35°28' E 139°47'0 0.0
2017-Dec-07 06:28N 35°28' E 139°47'0 0.1
2017-Dec-07 05:58N 35°28' E 139°47'0 0.1
2017-Dec-07 05:29N 35°28' E 139°47'0 0.0
2017-Dec-07 04:58N 35°28' E 139°47'0 0.0
2017-Dec-07 04:28N 35°28' E 139°47'0 0.0
2017-Dec-07 03:58N 35°28' E 139°47'0 0.0
2017-Dec-07 03:28N 35°28' E 139°47'0 0.0
2017-Dec-07 02:58N 35°28' E 139°47'0 0.0
2017-Dec-07 02:28N 35°28' E 139°47'0 0.0
2017-Dec-07 01:58N 35°28' E 139°47'0 0.0
2017-Dec-07 01:28N 35°28' E 139°47'0 0.0
2017-Dec-07 00:59N 35°28' E 139°47'0 0.0
2017-Dec-07 00:29N 35°28' E 139°47'0 0.0
2017-Dec-06 23:58N 35°28' E 139°47'0 0.1
2017-Dec-06 23:28N 35°28' E 139°47'0 0.1
2017-Dec-06 22:55N 35°28' E 139°47'0 0.1
2017-Dec-06 22:28N 35°28' E 139°47'0 0.0
2017-Dec-06 21:58N 35°28' E 139°47'0 0.0
2017-Dec-06 21:28N 35°28' E 139°47'0 0.0
2017-Dec-06 20:58N 35°28' E 139°47'  
2017-Dec-04 10:19N 35°28' E 139°47'0 0.0
2017-Dec-04 09:55N 35°28' E 139°47'0 0.0
2017-Dec-04 09:25N 35°28' E 139°47'0 0.0
2017-Dec-04 08:55N 35°28' E 139°47'0 0.1
2017-Dec-04 08:25N 35°28' E 139°47'0 0.1
2017-Dec-04 07:55N 35°28' E 139°47'0 0.1
2017-Dec-04 07:25N 35°28' E 139°47'0 0.1
2017-Dec-04 06:55N 35°28' E 139°47'0 0.1
2017-Dec-04 06:25N 35°28' E 139°47'0 0.0
2017-Dec-04 05:55N 35°28' E 139°47'0 0.0
2017-Dec-04 05:25N 35°28' E 139°47'0 0.0
2017-Dec-04 04:55N 35°28' E 139°47'0 0.0
2017-Dec-04 04:25N 35°28' E 139°47'0 0.0
2017-Dec-04 03:55N 35°28' E 139°47'0 0.0
2017-Dec-04 03:25N 35°28' E 139°47'0 0.0
2017-Dec-04 02:56N 35°28' E 139°47'0 0.1
2017-Dec-04 02:25N 35°28' E 139°47'0 0.1
2017-Dec-04 01:55N 35°28' E 139°47'0 0.1
2017-Dec-04 01:25N 35°28' E 139°47'0 0.0
2017-Dec-04 00:56N 35°28' E 139°47'0 0.1
2017-Dec-04 00:28N 35°28' E 139°47'0 0.1
2017-Dec-03 23:58N 35°28' E 139°47'0 0.1
2017-Dec-03 23:30N 35°28' E 139°47'2 4.7
2017-Dec-03 23:00N 35°30' E 139°47'1 1.8
2017-Dec-03 22:30N 35°31' E 139°46'0 0.0
2017-Dec-03 21:57N 35°31' E 139°46'0 0.0
2017-Dec-03 21:24N 35°31' E 139°46'0 0.0
2017-Dec-03 20:51N 35°31' E 139°46'0 0.0
2017-Dec-03 20:24N 35°31' E 139°46'0 0.0
2017-Dec-03 20:00N 35°31' E 139°46'0 0.0
2017-Dec-03 19:30N 35°31' E 139°46'0 0.0
2017-Dec-03 18:45N 35°31' E 139°46'0 0.0
2017-Dec-03 18:27N 35°31' E 139°46'0 0.0
2017-Dec-03 17:24N 35°31' E 139°46'0 0.0
2017-Dec-03 16:57N 35°31' E 139°46'0 0.0
2017-Dec-03 16:30N 35°31' E 139°46'0 0.0
2017-Dec-03 15:45N 35°31' E 139°46'0 0.0
2017-Dec-03 15:27N 35°31' E 139°46'0 0.0
2017-Dec-03 14:57N 35°31' E 139°46'0 0.0
2017-Dec-03 14:30N 35°31' E 139°46'0 0.0
2017-Dec-03 14:00N 35°31' E 139°46'0 0.0
2017-Dec-03 13:03N 35°31' E 139°46'0 0.0
2017-Dec-03 12:54N 35°31' E 139°46'0 0.0
2017-Dec-03 12:21N 35°31' E 139°46'0 0.0
2017-Dec-03 11:57N 35°31' E 139°46'0 0.0
2017-Dec-03 11:30N 35°31' E 139°46'0 0.0
2017-Dec-03 11:00N 35°31' E 139°46'0 0.0
2017-Dec-03 10:30N 35°31' E 139°46'0 0.0
2017-Dec-03 09:42N 35°31' E 139°46'0 0.0
2017-Dec-03 09:18N 35°31' E 139°46'0 0.0
2017-Dec-03 08:57N 35°31' E 139°46'0 0.0
2017-Dec-03 08:27N 35°31' E 139°46'0 0.0
2017-Dec-03 08:00N 35°31' E 139°46'0 0.0
2017-Dec-03 07:27N 35°31' E 139°46'0 0.0
2017-Dec-03 06:33N 35°31' E 139°46'0 0.0
2017-Dec-03 06:18N 35°31' E 139°46'0 0.0
2017-Dec-03 05:57N 35°31' E 139°46'0 0.0
2017-Dec-03 05:09N 35°31' E 139°46'0 0.0
2017-Dec-03 04:45N 35°31' E 139°46'0 0.0
2017-Dec-03 04:15N 35°31' E 139°46'0 0.0
2017-Dec-03 03:54N 35°31' E 139°46'0 0.0
2017-Dec-03 03:30N 35°31' E 139°46'0 0.0
2017-Dec-03 02:51N 35°31' E 139°46'0 0.0
2017-Dec-03 02:27N 35°31' E 139°46'0 0.1
2017-Dec-03 02:00N 35°31' E 139°46'2 4.1
2017-Dec-03 01:30N 35°30' E 139°48'2 3.4
2017-Dec-03 00:58N 35°28' E 139°47'0 0.0
2017-Dec-03 00:28N 35°28' E 139°47'0 0.0
2017-Dec-02 23:58N 35°28' E 139°47'0 0.1
2017-Dec-02 23:28N 35°28' E 139°47'0 0.0
2017-Dec-02 22:58N 35°28' E 139°47'0 0.0
2017-Dec-02 22:28N 35°28' E 139°47'0 0.0
2017-Dec-02 21:58N 35°28' E 139°47'0 0.0
2017-Dec-02 21:28N 35°28' E 139°47'0 0.0
2017-Dec-02 20:58N 35°28' E 139°47'0 0.1
2017-Dec-02 20:28N 35°28' E 139°47'0 0.1
2017-Dec-02 19:58N 35°28' E 139°47'0 0.1
2017-Dec-02 19:28N 35°28' E 139°47'0 0.0
2017-Dec-02 18:58N 35°28' E 139°47'0 0.1
2017-Dec-02 18:28N 35°28' E 139°47'0 0.0
2017-Dec-02 17:55N 35°28' E 139°47'0 0.0
2017-Dec-02 17:25N 35°28' E 139°47'0 0.0
2017-Dec-02 16:58N 35°28' E 139°47'0 0.0
2017-Dec-02 16:28N 35°28' E 139°47'0 0.1
2017-Dec-02 15:58N 35°28' E 139°47'0 0.0
2017-Dec-02 15:28N 35°28' E 139°47'0 0.0
2017-Dec-02 14:58N 35°28' E 139°47'0 0.1
2017-Dec-02 14:28N 35°28' E 139°47'0 0.1
2017-Dec-02 13:58N 35°28' E 139°47'0 0.0
2017-Dec-02 13:28N 35°28' E 139°47'0 0.1
2017-Dec-02 12:58N 35°28' E 139°47'0 0.1
2017-Dec-02 12:28N 35°28' E 139°47'0 0.0
2017-Dec-02 11:58N 35°28' E 139°47'0 0.0
2017-Dec-02 11:28N 35°28' E 139°47'0 0.0
2017-Dec-02 10:58N 35°28' E 139°47'0 0.1
2017-Dec-02 10:28N 35°28' E 139°47'0 0.0
2017-Dec-02 09:58N 35°28' E 139°47'0 0.0
2017-Dec-02 09:28N 35°28' E 139°47'0 0.0
2017-Dec-02 08:58N 35°28' E 139°47'0 0.0
2017-Dec-02 08:28N 35°28' E 139°47'0 0.0
2017-Dec-02 07:58N 35°28' E 139°47'0 0.2
2017-Dec-02 07:28N 35°28' E 139°47'0 0.1
2017-Dec-02 06:58N 35°28' E 139°47'0 0.1
2017-Dec-02 06:28N 35°28' E 139°47'0 0.0
2017-Dec-02 05:58N 35°28' E 139°47'0 0.0
2017-Dec-02 05:28N 35°28' E 139°47'0 0.0
2017-Dec-02 04:58N 35°28' E 139°47'0 0.0
2017-Dec-02 04:28N 35°28' E 139°47'0 0.1
2017-Dec-02 03:58N 35°28' E 139°47'0 0.1
2017-Dec-02 03:28N 35°28' E 139°47'0 0.2
2017-Dec-02 02:58N 35°28' E 139°47'0 0.1
2017-Dec-02 02:28N 35°28' E 139°47'0 0.0
2017-Dec-02 01:58N 35°28' E 139°47'0 0.1
2017-Dec-02 01:28N 35°28' E 139°47'0 0.0
2017-Dec-02 00:58N 35°28' E 139°47'0 0.0
2017-Dec-02 00:28N 35°28' E 139°47'0 0.0
2017-Dec-01 23:58N 35°28' E 139°47'0 0.0
2017-Dec-01 23:28N 35°28' E 139°47'0 0.0
2017-Dec-01 22:58N 35°28' E 139°47'0 0.0
2017-Dec-01 22:28N 35°28' E 139°47'0 0.0
2017-Dec-01 21:58N 35°28' E 139°47'0 0.0
2017-Dec-01 21:28N 35°28' E 139°47'0 0.0
2017-Dec-01 20:58N 35°28' E 139°47'0 0.0
2017-Dec-01 20:28N 35°28' E 139°47'0 0.0
2017-Dec-01 19:58N 35°28' E 139°47'0 0.0
2017-Dec-01 19:28N 35°28' E 139°47'0 0.0
2017-Dec-01 18:58N 35°28' E 139°47'0 0.0
2017-Dec-01 18:28N 35°28' E 139°47'0 0.0
2017-Dec-01 17:58N 35°28' E 139°47'0 0.0
2017-Dec-01 17:28N 35°28' E 139°47'0 0.1
2017-Dec-01 16:58N 35°28' E 139°47'0 0.1
2017-Dec-01 16:28N 35°28' E 139°47'0 0.0
2017-Dec-01 15:58N 35°28' E 139°47'0 0.0
2017-Dec-01 15:28N 35°28' E 139°47'0 0.0
2017-Dec-01 14:58N 35°28' E 139°47'0 0.0
2017-Dec-01 14:28N 35°28' E 139°47'0 0.0
2017-Dec-01 13:58N 35°28' E 139°47'0 0.1
2017-Dec-01 13:28N 35°28' E 139°47'0 0.1
2017-Dec-01 12:58N 35°28' E 139°47'0 0.0
2017-Dec-01 12:28N 35°28' E 139°47'0 0.1
2017-Dec-01 11:58N 35°28' E 139°47'0 0.0
2017-Dec-01 11:28N 35°28' E 139°47'0 0.0
2017-Dec-01 10:58N 35°28' E 139°47'0 0.0
2017-Dec-01 10:28N 35°28' E 139°47'0 0.0
2017-Dec-01 09:58N 35°28' E 139°47'0 0.0
2017-Dec-01 09:25N 35°28' E 139°47'0 0.0
2017-Dec-01 08:58N 35°28' E 139°47'0 0.0
2017-Dec-01 08:28N 35°28' E 139°47'0 0.0
2017-Dec-01 07:58N 35°28' E 139°47'0 0.0
2017-Dec-01 07:28N 35°28' E 139°47'0 0.1
2017-Dec-01 06:58N 35°28' E 139°47'0 0.0
2017-Dec-01 06:28N 35°28' E 139°47'0 0.0
2017-Dec-01 05:58N 35°28' E 139°47'0 0.0
2017-Dec-01 05:28N 35°28' E 139°47'0 0.1
2017-Dec-01 04:58N 35°28' E 139°47'0 0.1
2017-Dec-01 04:28N 35°28' E 139°47'0 0.1
2017-Dec-01 03:58N 35°28' E 139°47'0 0.0
2017-Dec-01 03:28N 35°28' E 139°47'  

Dump ship's entire track history